createdAt,value
2022-08-18T00:00:23.133Z,49.85
2022-08-18T00:01:23.121Z,40.99
2022-08-18T00:02:28.788Z,50.78
2022-08-18T00:03:53.108Z,52.09
2022-08-18T00:04:35.789Z,50.60
2022-08-18T00:05:24.087Z,43.63
2022-08-18T00:06:23.086Z,45.58
2022-08-18T00:07:23.065Z,55.11
2022-08-18T00:08:23.069Z,55.32
2022-08-18T00:09:23.072Z,42.89
2022-08-18T00:10:23.055Z,41.70
2022-08-18T00:11:23.024Z,56.81
2022-08-18T00:12:23.026Z,49.45
2022-08-18T00:13:23.017Z,45.02
2022-08-18T00:14:23.096Z,54.49
2022-08-18T00:15:23.012Z,48.57
2022-08-18T00:16:23.003Z,51.82
2022-08-18T00:17:23.018Z,43.21
2022-08-18T00:18:22.989Z,57.24
2022-08-18T00:19:43.623Z,45.05
2022-08-18T00:20:23.983Z,52.52
2022-08-18T00:21:22.951Z,52.32
2022-08-18T00:22:22.942Z,52.57
2022-08-18T00:23:22.932Z,52.66
2022-08-18T00:24:22.940Z,60.77
2022-08-18T00:25:22.936Z,49.26
2022-08-18T00:26:22.946Z,48.73
2022-08-18T00:27:26.182Z,49.27
2022-08-18T00:28:24.133Z,42.52
2022-08-18T00:29:22.896Z,50.05
2022-08-18T00:30:22.868Z,44.99
2022-08-18T00:33:22.387Z,52.59
2022-08-18T00:34:22.378Z,57.86
2022-08-18T00:35:22.377Z,54.10
2022-08-18T00:36:22.357Z,57.09
2022-08-18T00:37:22.359Z,50.02
2022-08-18T00:38:23.584Z,42.28
2022-08-18T00:39:22.339Z,47.82
2022-08-18T00:40:22.383Z,51.18
2022-08-18T00:41:22.329Z,51.53
2022-08-18T00:42:28.920Z,40.76
2022-08-18T00:43:24.417Z,44.73
2022-08-18T00:44:23.397Z,58.67
2022-08-18T00:45:23.391Z,48.26
2022-08-18T00:46:23.377Z,43.82
2022-08-18T00:47:32.963Z,48.43
2022-08-18T00:48:24.382Z,47.59
2022-08-18T00:49:23.350Z,44.26
2022-08-18T00:50:23.357Z,54.16
2022-08-18T00:51:23.339Z,54.39
2022-08-18T00:52:23.368Z,48.41
2022-08-18T00:53:23.323Z,45.39
2022-08-18T00:54:23.329Z,54.00
2022-08-18T00:55:23.305Z,40.24
2022-08-18T00:56:23.304Z,51.94
2022-08-18T00:57:23.300Z,49.92
2022-08-18T00:58:23.281Z,46.70
2022-08-18T00:59:23.282Z,43.20
2022-08-18T01:00:23.269Z,37.26
2022-08-18T01:01:23.354Z,38.12
2022-08-18T01:02:23.242Z,38.72
2022-08-18T01:03:24.605Z,37.62
2022-08-18T01:04:23.245Z,43.76
2022-08-18T01:05:23.235Z,41.50
2022-08-18T01:06:23.216Z,54.08
2022-08-18T01:07:23.216Z,50.36
2022-08-18T01:08:28.860Z,42.37
2022-08-18T01:09:24.228Z,48.03
2022-08-18T01:10:23.306Z,40.93
2022-08-18T01:11:23.185Z,42.03
2022-08-18T01:12:45.775Z,39.46
2022-08-18T01:13:24.175Z,39.28
2022-08-18T01:14:23.177Z,39.18
2022-08-18T01:15:28.838Z,39.11
2022-08-18T01:16:24.151Z,51.72
2022-08-18T01:17:23.133Z,40.56
2022-08-18T01:18:23.119Z,54.50
2022-08-18T01:19:23.123Z,45.14
2022-08-18T01:20:23.100Z,46.95
2022-08-18T01:21:23.143Z,48.09
2022-08-18T01:22:23.091Z,41.06
2022-08-18T01:23:23.077Z,49.98
2022-08-18T01:24:23.082Z,46.14
2022-08-18T01:25:23.583Z,56.68
2022-08-18T01:26:23.086Z,47.91
2022-08-18T01:27:23.077Z,54.09
2022-08-18T01:28:23.054Z,53.09
2022-08-18T01:29:23.069Z,42.69
2022-08-18T01:30:23.019Z,51.67
2022-08-18T01:31:23.760Z,48.81
2022-08-18T01:32:23.009Z,56.31
2022-08-18T01:33:22.995Z,50.06
2022-08-18T01:34:23.988Z,49.35
2022-08-18T01:35:23.000Z,56.84
2022-08-18T01:36:23.065Z,45.05
2022-08-18T01:37:22.970Z,46.02
2022-08-18T01:38:22.952Z,52.00
2022-08-18T01:41:23.888Z,46.74
2022-08-18T01:41:24.228Z,39.68
2022-08-18T01:41:30.318Z,43.21
2022-08-18T01:42:24.938Z,55.99
2022-08-18T01:43:22.906Z,54.43
2022-08-18T01:46:29.178Z,49.13
2022-08-18T01:47:29.173Z,59.13
2022-08-18T01:48:31.250Z,57.61
2022-08-18T01:49:30.292Z,47.65
2022-08-18T01:50:30.236Z,43.61
2022-08-18T01:51:39.453Z,57.48
2022-08-18T01:52:31.225Z,57.67
2022-08-18T01:53:30.209Z,43.35
2022-08-18T01:54:30.370Z,43.78
2022-08-18T01:55:30.193Z,43.39
2022-08-18T01:56:30.191Z,47.96
2022-08-18T01:57:30.182Z,42.75
2022-08-18T01:58:31.809Z,44.50
2022-08-18T01:59:31.161Z,55.05
2022-08-18T02:00:30.150Z,56.77
2022-08-18T02:01:36.642Z,45.69
2022-08-18T02:02:31.187Z,50.97
2022-08-18T02:03:30.135Z,47.16
2022-08-18T02:04:37.614Z,43.52
2022-08-18T02:05:32.116Z,41.61
2022-08-18T02:06:32.488Z,49.97
2022-08-18T02:07:35.951Z,59.27
2022-08-18T02:08:31.097Z,46.86
2022-08-18T02:09:30.083Z,50.59
2022-08-18T02:10:30.076Z,51.33
2022-08-18T02:11:30.065Z,51.21
2022-08-18T02:12:30.059Z,44.05
2022-08-18T02:13:30.059Z,55.11
2022-08-18T02:14:31.304Z,49.83
2022-08-18T02:15:30.044Z,51.64
2022-08-18T02:16:30.027Z,48.82
2022-08-18T02:17:30.020Z,45.59
2022-08-18T02:18:47.226Z,49.77
2022-08-18T02:19:32.001Z,44.80
2022-08-18T02:20:30.014Z,47.88
2022-08-18T02:21:29.990Z,51.01
2022-08-18T02:22:29.979Z,42.42
2022-08-18T02:23:29.976Z,45.08
2022-08-18T02:24:29.966Z,55.56
2022-08-18T02:25:29.995Z,58.42
2022-08-18T02:26:29.948Z,53.48
2022-08-18T02:27:29.938Z,48.21
2022-08-18T02:28:30.742Z,58.63
2022-08-18T02:29:30.929Z,58.05
2022-08-18T02:30:29.917Z,57.54
2022-08-18T02:31:29.923Z,55.96
2022-08-18T02:32:29.896Z,58.32
2022-08-18T02:33:29.889Z,63.78
2022-08-18T02:34:29.882Z,60.93
2022-08-18T02:35:29.872Z,56.29
2022-08-18T02:36:29.870Z,61.61
2022-08-18T02:37:29.852Z,50.54
2022-08-18T02:38:29.851Z,51.24
2022-08-18T02:39:29.929Z,52.94
2022-08-18T02:40:29.839Z,53.69
2022-08-18T02:41:30.187Z,51.77
2022-08-18T02:42:29.818Z,57.39
2022-08-18T02:43:31.161Z,56.30
2022-08-18T02:44:30.629Z,55.60
2022-08-18T02:45:30.796Z,55.46
2022-08-18T02:46:31.305Z,54.30
2022-08-18T02:47:33.521Z,52.81
2022-08-18T02:48:30.770Z,61.02
2022-08-18T02:49:29.767Z,52.08
2022-08-18T02:50:29.754Z,54.81
2022-08-18T02:51:29.743Z,55.89
2022-08-18T02:52:29.752Z,57.38
2022-08-18T02:53:29.720Z,55.93
2022-08-18T02:54:29.717Z,56.31
2022-08-18T02:55:29.711Z,62.44
2022-08-18T02:56:32.863Z,55.40
2022-08-18T02:57:30.688Z,52.75
2022-08-18T02:58:33.571Z,51.65
2022-08-18T02:59:31.944Z,52.58
2022-08-18T03:00:29.680Z,58.97
2022-08-18T03:01:29.775Z,60.42
2022-08-18T03:02:29.650Z,60.43
2022-08-18T03:03:29.642Z,57.94
2022-08-18T03:04:30.548Z,58.56
2022-08-18T03:05:29.637Z,54.87
2022-08-18T03:06:29.619Z,59.46
2022-08-18T03:07:29.616Z,59.22
2022-08-18T03:08:29.600Z,55.38
2022-08-18T03:09:29.593Z,58.53
2022-08-18T03:10:33.006Z,57.89
2022-08-18T03:11:29.588Z,57.40
2022-08-18T03:12:29.580Z,52.43
2022-08-18T03:13:29.561Z,54.31
2022-08-18T03:14:29.560Z,58.89
2022-08-18T03:15:29.552Z,58.69
2022-08-18T03:16:29.546Z,55.38
2022-08-18T03:17:29.532Z,60.03
2022-08-18T03:18:29.523Z,56.42
2022-08-18T03:19:29.635Z,62.20
2022-08-18T03:20:30.282Z,57.75
2022-08-18T03:21:29.500Z,58.68
2022-08-18T03:22:29.763Z,54.28
2022-08-18T03:23:30.095Z,53.38
2022-08-18T03:24:29.488Z,59.66
2022-08-18T03:25:29.466Z,55.55
2022-08-18T03:26:29.460Z,57.31
2022-08-18T03:27:30.078Z,56.84
2022-08-18T03:28:29.444Z,61.74
2022-08-18T03:29:32.317Z,60.72
2022-08-18T03:30:30.431Z,58.02
2022-08-18T03:31:29.418Z,60.37
2022-08-18T03:32:29.413Z,59.06
2022-08-18T03:33:29.435Z,60.25
2022-08-18T03:34:29.408Z,60.71
2022-08-18T03:35:29.395Z,62.87
2022-08-18T03:36:29.384Z,63.94
2022-08-18T03:37:29.374Z,57.98
2022-08-18T03:38:29.364Z,61.97
2022-08-18T03:39:29.470Z,62.01
2022-08-18T03:40:29.381Z,56.99
2022-08-18T03:41:57.117Z,56.44
2022-08-18T03:42:30.336Z,55.41
2022-08-18T03:43:50.756Z,58.34
2022-08-18T03:44:31.107Z,54.60
2022-08-18T03:45:29.673Z,59.82
2022-08-18T03:46:29.298Z,58.19
2022-08-18T03:47:29.287Z,57.42
2022-08-18T03:48:29.283Z,62.40
2022-08-18T03:49:29.280Z,56.58
2022-08-18T03:50:29.267Z,60.49
2022-08-18T03:51:29.257Z,60.67
2022-08-18T03:52:29.250Z,63.68
2022-08-18T03:53:29.241Z,63.96
2022-08-18T03:54:29.280Z,62.74
2022-08-18T03:55:29.233Z,59.31
2022-08-18T03:56:29.206Z,57.92
2022-08-18T03:57:30.214Z,58.76
2022-08-18T03:58:29.204Z,59.57
2022-08-18T03:59:29.199Z,61.05
2022-08-18T04:00:29.194Z,61.69
2022-08-18T04:01:29.224Z,60.40
2022-08-18T04:02:29.175Z,62.53
2022-08-18T04:03:29.173Z,63.26
2022-08-18T04:04:29.159Z,60.30
2022-08-18T04:05:29.156Z,61.16
2022-08-18T04:06:29.883Z,58.49
2022-08-18T04:07:29.142Z,58.82
2022-08-18T04:08:29.127Z,63.03
2022-08-18T04:09:29.124Z,59.56
2022-08-18T04:10:29.117Z,58.93
2022-08-18T04:11:29.104Z,57.30
2022-08-18T04:12:30.092Z,59.82
2022-08-18T04:13:29.086Z,59.33
2022-08-18T04:14:29.092Z,61.97
2022-08-18T04:15:29.075Z,58.24
2022-08-18T04:16:29.061Z,58.43
2022-08-18T04:17:29.063Z,60.08
2022-08-18T04:18:29.042Z,63.11
2022-08-18T04:19:29.076Z,62.39
2022-08-18T04:20:29.030Z,63.90
2022-08-18T04:21:29.038Z,63.14
2022-08-18T04:22:29.017Z,57.70
2022-08-18T04:23:29.012Z,54.95
2022-08-18T04:24:31.170Z,58.48
2022-08-18T04:25:32.728Z,60.49
2022-08-18T04:26:29.982Z,63.19
2022-08-18T04:27:28.983Z,61.48
2022-08-18T04:28:28.976Z,62.71
2022-08-18T04:29:28.976Z,62.08
2022-08-18T04:30:28.953Z,63.07
2022-08-18T04:31:28.946Z,60.58
2022-08-18T04:32:30.293Z,62.31
2022-08-18T04:33:28.931Z,63.63
2022-08-18T04:34:28.934Z,62.59
2022-08-18T04:35:29.083Z,63.46
2022-08-18T04:36:28.905Z,65.25
2022-08-18T04:37:28.904Z,60.00
2022-08-18T04:38:28.886Z,61.58
2022-08-18T04:39:28.920Z,63.65
2022-08-18T04:40:28.900Z,60.51
2022-08-18T04:41:28.859Z,62.21
2022-08-18T04:42:28.861Z,62.48
2022-08-18T04:43:28.844Z,59.92
2022-08-18T04:44:28.842Z,62.15
2022-08-18T04:45:28.826Z,61.47
2022-08-18T04:46:28.819Z,59.45
2022-08-18T04:47:28.818Z,60.76
2022-08-18T04:48:28.809Z,62.89
2022-08-18T04:49:28.794Z,60.49
2022-08-18T04:50:28.795Z,61.04
2022-08-18T04:52:37.752Z,63.33
2022-08-18T04:52:40.241Z,60.35
2022-08-18T04:53:29.761Z,62.66
2022-08-18T04:54:28.755Z,63.69
2022-08-18T04:55:28.757Z,62.68
2022-08-18T04:56:28.742Z,63.53
2022-08-18T04:57:28.730Z,63.69
2022-08-18T04:58:28.725Z,61.73
2022-08-18T04:59:28.719Z,62.49
2022-08-18T05:00:28.705Z,64.97
2022-08-18T05:01:28.797Z,60.58
2022-08-18T05:02:28.692Z,64.86
2022-08-18T05:03:28.683Z,65.20
2022-08-18T05:04:28.688Z,60.61
2022-08-18T05:05:28.666Z,63.60
2022-08-18T05:06:28.657Z,61.96
2022-08-18T05:07:28.653Z,62.73
2022-08-18T05:08:28.647Z,62.31
2022-08-18T05:09:28.647Z,63.96
2022-08-18T05:10:28.627Z,61.37
2022-08-18T05:11:28.621Z,60.72
2022-08-18T05:12:28.614Z,61.64
2022-08-18T05:13:28.609Z,65.70
2022-08-18T05:14:28.605Z,62.47
2022-08-18T05:15:28.819Z,65.01
2022-08-18T05:16:28.589Z,65.03
2022-08-18T05:17:30.137Z,68.07
2022-08-18T05:18:28.570Z,68.54
2022-08-18T05:19:28.569Z,69.98
2022-08-18T05:20:28.564Z,66.81
2022-08-18T05:21:28.551Z,66.32
2022-08-18T05:22:31.376Z,65.83
2022-08-18T05:23:28.534Z,63.98
2022-08-18T05:24:33.570Z,64.32
2022-08-18T05:25:30.520Z,62.89
2022-08-18T05:26:28.509Z,63.29
2022-08-18T05:27:28.501Z,66.41
2022-08-18T05:28:28.496Z,65.08
2022-08-18T05:29:28.486Z,67.32
2022-08-18T05:30:28.490Z,65.34
2022-08-18T05:31:28.477Z,65.85
2022-08-18T05:32:46.310Z,65.91
2022-08-18T05:33:29.456Z,62.36
2022-08-18T05:34:28.501Z,63.83
2022-08-18T05:35:28.446Z,62.87
2022-08-18T05:36:28.430Z,63.29
2022-08-18T05:37:28.425Z,65.82
2022-08-18T05:38:29.421Z,64.25
2022-08-18T05:39:28.481Z,63.16
2022-08-18T05:40:28.407Z,62.92
2022-08-18T05:41:28.394Z,61.71
2022-08-18T05:42:28.777Z,65.50
2022-08-18T05:43:28.377Z,63.13
2022-08-18T05:44:28.375Z,63.09
2022-08-18T05:45:28.369Z,64.02
2022-08-18T05:46:28.365Z,61.91
2022-08-18T05:47:28.346Z,61.58
2022-08-18T05:48:28.337Z,63.47
2022-08-18T05:49:28.334Z,62.98
2022-08-18T05:50:28.321Z,65.26
2022-08-18T05:51:28.325Z,65.76
2022-08-18T05:52:28.303Z,62.90
2022-08-18T05:53:28.299Z,63.19
2022-08-18T05:54:28.297Z,64.90
2022-08-18T05:55:28.291Z,64.14
2022-08-18T05:56:28.282Z,61.74
2022-08-18T05:57:28.268Z,63.63
2022-08-18T05:58:33.299Z,63.76
2022-08-18T05:59:29.255Z,65.14
2022-08-18T06:00:28.279Z,72.25
2022-08-18T06:01:28.242Z,71.39
2022-08-18T06:02:28.230Z,71.45
2022-08-18T06:03:28.261Z,70.69
2022-08-18T06:04:28.215Z,70.22
2022-08-18T06:05:28.204Z,67.43
2022-08-18T06:06:28.213Z,68.35
2022-08-18T06:07:28.196Z,63.13
2022-08-18T06:08:29.183Z,61.18
2022-08-18T06:09:28.186Z,61.46
2022-08-18T06:10:28.271Z,62.66
2022-08-18T06:11:28.172Z,63.33
2022-08-18T06:12:28.152Z,61.34
2022-08-18T06:13:28.162Z,64.17
2022-08-18T06:14:28.136Z,66.15
2022-08-18T06:15:28.127Z,62.78
2022-08-18T06:16:28.118Z,63.61
2022-08-18T06:17:28.121Z,63.31
2022-08-18T06:18:28.103Z,64.14
2022-08-18T06:19:28.097Z,63.19
2022-08-18T06:20:28.224Z,64.79
2022-08-18T06:21:28.080Z,67.90
2022-08-18T06:22:30.539Z,66.57
2022-08-18T06:23:28.067Z,62.02
2022-08-18T06:24:28.053Z,63.11
2022-08-18T06:25:28.061Z,64.00
2022-08-18T06:26:28.048Z,62.14
2022-08-18T06:27:28.067Z,63.87
2022-08-18T06:28:28.029Z,62.80
2022-08-18T06:29:28.016Z,66.19
2022-08-18T06:30:28.008Z,71.21
2022-08-18T06:31:29.559Z,70.50
2022-08-18T06:32:28.997Z,68.02
2022-08-18T06:33:27.986Z,63.75
2022-08-18T06:34:27.977Z,62.88
2022-08-18T06:35:27.995Z,64.50
2022-08-18T06:36:27.969Z,69.53
2022-08-18T06:37:28.715Z,65.34
2022-08-18T06:38:27.946Z,65.92
2022-08-18T06:39:28.005Z,63.20
2022-08-18T06:40:27.933Z,64.79
2022-08-18T06:41:40.700Z,69.84
2022-08-18T06:42:28.914Z,69.43
2022-08-18T06:43:27.907Z,67.76
2022-08-18T06:44:27.903Z,62.45
2022-08-18T06:45:33.780Z,62.62
2022-08-18T06:46:28.894Z,61.86
2022-08-18T06:47:27.877Z,61.17
2022-08-18T06:48:27.872Z,64.05
2022-08-18T06:49:27.867Z,65.37
2022-08-18T06:50:27.861Z,66.26
2022-08-18T06:51:27.847Z,64.59
2022-08-18T06:52:27.870Z,63.43
2022-08-18T06:53:28.390Z,61.90
2022-08-18T06:54:27.836Z,65.66
2022-08-18T06:55:27.813Z,67.03
2022-08-18T06:56:27.807Z,68.32
2022-08-18T06:57:27.809Z,64.23
2022-08-18T06:58:27.790Z,64.12
2022-08-18T06:59:27.782Z,64.00
2022-08-18T07:00:27.777Z,63.72
2022-08-18T07:01:27.793Z,63.34
2022-08-18T07:02:27.769Z,64.42
2022-08-18T07:03:28.775Z,61.71
2022-08-18T07:04:27.742Z,64.26
2022-08-18T07:05:27.737Z,64.65
2022-08-18T07:06:27.728Z,62.75
2022-08-18T07:07:27.725Z,62.22
2022-08-18T07:08:28.713Z,61.58
2022-08-18T07:09:27.721Z,61.99
2022-08-18T07:10:27.716Z,62.45
2022-08-18T07:11:27.684Z,61.24
2022-08-18T07:12:32.254Z,64.70
2022-08-18T07:13:30.212Z,70.40
2022-08-18T07:14:27.685Z,69.25
2022-08-18T07:15:27.652Z,69.02
2022-08-18T07:16:54.516Z,67.07
2022-08-18T07:17:42.564Z,67.66
2022-08-18T07:18:28.626Z,69.08
2022-08-18T07:19:27.619Z,63.52
2022-08-18T07:20:27.614Z,63.92
2022-08-18T07:21:27.604Z,66.83
2022-08-18T07:22:38.932Z,65.00
2022-08-18T07:23:28.612Z,65.55
2022-08-18T07:24:27.585Z,63.23
2022-08-18T07:25:27.572Z,63.31
2022-08-18T07:26:27.565Z,63.27
2022-08-18T07:27:28.234Z,63.83
2022-08-18T07:28:27.559Z,63.25
2022-08-18T07:29:27.536Z,63.27
2022-08-18T07:30:27.539Z,63.73
2022-08-18T07:31:27.546Z,63.85
2022-08-18T07:32:27.512Z,61.38
2022-08-18T07:33:27.519Z,62.75
2022-08-18T07:34:27.532Z,60.31
2022-08-18T07:35:27.506Z,62.79
2022-08-18T07:36:27.484Z,64.41
2022-08-18T07:37:28.950Z,62.66
2022-08-18T07:38:42.453Z,64.91
2022-08-18T07:39:29.525Z,63.01
2022-08-18T07:40:27.476Z,61.79
2022-08-18T07:41:28.242Z,60.85
2022-08-18T07:42:53.534Z,65.40
2022-08-18T07:43:28.423Z,63.56
2022-08-18T07:44:27.414Z,63.34
2022-08-18T07:45:27.411Z,63.02
2022-08-18T07:46:27.397Z,61.67
2022-08-18T07:47:27.398Z,61.11
2022-08-18T07:48:38.175Z,62.73
2022-08-18T07:49:29.376Z,62.18
2022-08-18T07:50:57.652Z,60.78
2022-08-18T07:51:37.046Z,62.56
2022-08-18T07:52:43.935Z,60.94
2022-08-18T07:53:28.356Z,64.90
2022-08-18T07:54:48.470Z,66.25
2022-08-18T07:55:29.328Z,64.62
2022-08-18T07:56:27.321Z,63.22
2022-08-18T07:57:27.310Z,61.05
2022-08-18T07:58:27.339Z,61.12
2022-08-18T07:59:27.292Z,62.54
2022-08-18T08:00:57.086Z,63.83
2022-08-18T08:01:29.307Z,66.30
2022-08-18T08:02:27.274Z,63.57
2022-08-18T08:03:27.287Z,66.19
2022-08-18T08:04:27.251Z,64.99
2022-08-18T08:05:27.239Z,62.86
2022-08-18T08:06:27.247Z,64.60
2022-08-18T08:07:27.251Z,64.75
2022-08-18T08:08:27.223Z,64.98
2022-08-18T08:09:27.215Z,63.49
2022-08-18T08:10:27.202Z,63.40
2022-08-18T08:11:27.203Z,62.81
2022-08-18T08:12:27.186Z,62.70
2022-08-18T08:13:53.533Z,65.74
2022-08-18T08:14:29.201Z,63.61
2022-08-18T08:15:27.360Z,64.62
2022-08-18T08:16:27.167Z,64.95
2022-08-18T08:17:27.147Z,65.43
2022-08-18T08:18:27.137Z,65.10
2022-08-18T08:19:49.342Z,65.46
2022-08-18T08:20:32.889Z,66.02
2022-08-18T08:21:27.145Z,63.77
2022-08-18T08:22:27.110Z,65.73
2022-08-18T08:23:27.101Z,64.90
2022-08-18T08:24:27.099Z,63.68
2022-08-18T08:25:47.550Z,64.43
2022-08-18T08:26:29.079Z,67.85
2022-08-18T08:27:27.682Z,66.45
2022-08-18T08:28:27.065Z,62.83
2022-08-18T08:29:27.066Z,63.28
2022-08-18T08:30:27.048Z,65.32
2022-08-18T08:31:39.761Z,64.63
2022-08-18T08:32:29.031Z,65.54
2022-08-18T08:33:27.028Z,65.31
2022-08-18T08:34:27.028Z,62.82
2022-08-18T08:35:50.159Z,65.49
2022-08-18T08:36:28.020Z,64.43
2022-08-18T08:37:26.991Z,65.45
2022-08-18T08:38:42.301Z,63.81
2022-08-18T08:39:29.062Z,64.55
2022-08-18T08:40:26.972Z,66.93
2022-08-18T08:41:26.965Z,66.15
2022-08-18T08:42:31.547Z,64.40
2022-08-18T08:43:27.946Z,63.97
2022-08-18T08:44:26.934Z,70.58
2022-08-18T08:45:26.935Z,65.06
2022-08-18T08:46:26.935Z,65.54
2022-08-18T08:47:26.922Z,63.62
2022-08-18T08:48:26.901Z,65.92
2022-08-18T08:49:26.895Z,68.23
2022-08-18T08:50:26.893Z,66.61
2022-08-18T08:51:26.893Z,64.62
2022-08-18T08:52:26.867Z,66.21
2022-08-18T08:53:26.859Z,65.67
2022-08-18T08:54:26.856Z,65.68
2022-08-18T08:55:26.849Z,65.14
2022-08-18T08:56:26.838Z,65.88
2022-08-18T08:57:27.690Z,65.90
2022-08-18T08:58:26.821Z,65.79
2022-08-18T08:59:26.813Z,64.30
2022-08-18T09:00:26.810Z,65.57
2022-08-18T09:01:26.883Z,65.51
2022-08-18T09:02:46.820Z,65.90
2022-08-18T09:03:30.260Z,66.85
2022-08-18T09:04:26.770Z,65.40
2022-08-18T09:05:26.819Z,68.37
2022-08-18T09:06:26.769Z,67.20
2022-08-18T09:07:26.744Z,64.97
2022-08-18T09:08:26.745Z,65.56
2022-08-18T09:09:26.735Z,64.79
2022-08-18T09:10:26.725Z,64.43
2022-08-18T09:11:26.723Z,63.13
2022-08-18T09:12:26.715Z,67.11
2022-08-18T09:13:29.171Z,66.87
2022-08-18T09:14:27.687Z,65.57
2022-08-18T09:15:26.683Z,66.95
2022-08-18T09:16:27.779Z,65.99
2022-08-18T09:17:30.026Z,64.98
2022-08-18T09:18:27.649Z,65.30
2022-08-18T09:19:26.651Z,66.33
2022-08-18T09:20:26.646Z,66.55
2022-08-18T09:21:26.623Z,69.09
2022-08-18T09:22:27.177Z,68.15
2022-08-18T09:23:26.611Z,67.60
2022-08-18T09:24:26.612Z,65.82
2022-08-18T09:25:26.602Z,68.55
2022-08-18T09:26:26.591Z,69.63
2022-08-18T09:27:26.596Z,69.54
2022-08-18T09:28:26.579Z,69.89
2022-08-18T09:29:26.565Z,69.02
2022-08-18T09:30:26.565Z,69.28
2022-08-18T09:31:26.550Z,69.56
2022-08-18T09:32:28.209Z,69.18
2022-08-18T09:33:26.543Z,69.71
2022-08-18T09:34:26.527Z,67.84
2022-08-18T09:35:26.525Z,71.56
2022-08-18T09:36:26.513Z,70.56
2022-08-18T09:37:26.573Z,69.10
2022-08-18T09:38:26.505Z,69.70
2022-08-18T09:39:26.620Z,67.15
2022-08-18T09:40:51.341Z,65.58
2022-08-18T09:41:28.472Z,68.31
2022-08-18T09:42:29.897Z,70.19
2022-08-18T09:43:26.467Z,66.06
2022-08-18T09:44:26.578Z,67.80
2022-08-18T09:45:31.058Z,69.01
2022-08-18T09:46:28.438Z,68.99
2022-08-18T09:47:27.505Z,67.98
2022-08-18T09:49:27.422Z,66.20
2022-08-18T09:50:26.805Z,66.46
2022-08-18T09:50:37.216Z,66.58
2022-08-18T09:51:27.396Z,67.46
2022-08-18T09:52:26.427Z,66.44
2022-08-18T09:53:26.381Z,68.48
2022-08-18T09:54:26.377Z,69.57
2022-08-18T09:55:26.367Z,64.14
2022-08-18T09:56:28.675Z,68.64
2022-08-18T09:57:26.362Z,66.91
2022-08-18T09:58:26.352Z,68.12
2022-08-18T09:59:26.321Z,67.25
2022-08-18T10:00:28.251Z,67.98
2022-08-18T10:01:26.362Z,66.81
2022-08-18T10:02:28.059Z,68.35
2022-08-18T10:03:26.476Z,68.39
2022-08-18T10:04:29.227Z,67.31
2022-08-18T10:05:26.290Z,70.17
2022-08-18T10:06:27.616Z,69.49
2022-08-18T10:07:26.274Z,70.41
2022-08-18T10:08:26.270Z,66.40
2022-08-18T10:09:36.972Z,67.36
2022-08-18T10:11:01.247Z,63.41
2022-08-18T10:11:27.238Z,65.55
2022-08-18T10:12:27.453Z,66.75
2022-08-18T10:13:26.233Z,63.15
2022-08-18T10:14:26.227Z,66.61
2022-08-18T10:15:33.125Z,69.72
2022-08-18T10:16:28.141Z,71.05
2022-08-18T10:17:26.194Z,66.09
2022-08-18T10:18:26.185Z,66.07
2022-08-18T10:19:28.165Z,66.54
2022-08-18T10:20:28.179Z,66.74
2022-08-18T10:21:26.166Z,65.19
2022-08-18T10:22:35.171Z,68.51
2022-08-18T10:23:28.147Z,65.39
2022-08-18T10:24:35.847Z,66.49
2022-08-18T10:25:28.133Z,66.55
2022-08-18T10:26:26.143Z,66.75
2022-08-18T10:27:26.118Z,66.61
2022-08-18T10:28:26.110Z,70.62
2022-08-18T10:29:26.097Z,69.86
2022-08-18T10:30:30.449Z,66.82
2022-08-18T10:31:27.285Z,63.84
2022-08-18T10:32:26.072Z,64.48
2022-08-18T10:33:26.074Z,65.79
2022-08-18T10:34:26.064Z,65.07
2022-08-18T10:35:32.662Z,65.87
2022-08-18T10:36:28.806Z,67.85
2022-08-18T10:37:26.341Z,65.93
2022-08-18T10:38:26.026Z,63.22
2022-08-18T10:39:27.117Z,64.34
2022-08-18T10:40:26.652Z,66.30
2022-08-18T10:41:26.731Z,64.88
2022-08-18T10:42:28.599Z,64.00
2022-08-18T10:44:29.591Z,65.37
2022-08-18T10:45:26.985Z,65.33
2022-08-18T10:46:28.520Z,65.79
2022-08-18T10:47:33.500Z,64.44
2022-08-18T10:48:27.078Z,65.54
2022-08-18T10:50:26.933Z,63.72
2022-08-18T10:51:25.935Z,65.12
2022-08-18T10:52:25.921Z,63.48
2022-08-18T10:53:40.710Z,66.77
2022-08-18T10:54:27.920Z,65.09
2022-08-18T10:55:25.910Z,65.99
2022-08-18T10:56:27.430Z,67.88
2022-08-18T10:57:25.889Z,68.44
2022-08-18T10:58:28.220Z,67.32
2022-08-18T10:59:28.083Z,68.93
2022-08-18T11:00:26.099Z,69.05
2022-08-18T11:01:25.856Z,67.45
2022-08-18T11:02:26.848Z,68.44
2022-08-18T11:03:55.491Z,67.23
2022-08-18T11:04:34.526Z,66.63
2022-08-18T11:05:27.827Z,63.83
2022-08-18T11:06:25.828Z,63.01
2022-08-18T11:07:25.824Z,63.65
2022-08-18T11:08:25.839Z,65.39
2022-08-18T11:09:25.798Z,73.45
2022-08-18T11:10:30.032Z,66.52
2022-08-18T11:12:27.771Z,63.23
2022-08-18T11:13:26.121Z,65.01
2022-08-18T11:14:25.769Z,63.55
2022-08-18T11:15:25.750Z,64.66
2022-08-18T11:16:25.741Z,64.72
2022-08-18T11:17:26.362Z,64.37
2022-08-18T11:18:25.728Z,64.94
2022-08-18T11:19:25.714Z,67.06
2022-08-18T11:20:25.710Z,65.95
2022-08-18T11:21:25.702Z,64.41
2022-08-18T11:22:31.501Z,66.43
2022-08-18T11:23:26.690Z,65.83
2022-08-18T11:24:25.686Z,65.01
2022-08-18T11:25:25.672Z,64.13
2022-08-18T11:26:25.664Z,63.22
2022-08-18T11:27:25.651Z,63.38
2022-08-18T11:29:26.630Z,65.86
2022-08-18T11:30:30.426Z,66.95
2022-08-18T11:31:26.621Z,64.42
2022-08-18T11:32:26.258Z,64.32
2022-08-18T11:33:25.608Z,63.49
2022-08-18T11:34:25.596Z,64.05
2022-08-18T11:35:25.594Z,66.45
2022-08-18T11:36:26.150Z,65.50
2022-08-18T11:37:25.576Z,62.37
2022-08-18T11:38:25.565Z,64.45
2022-08-18T11:39:36.861Z,64.99
2022-08-18T11:41:08.974Z,63.91
2022-08-18T11:41:48.259Z,62.81
2022-08-18T11:42:26.543Z,63.81
2022-08-18T11:43:25.534Z,63.69
2022-08-18T11:44:25.610Z,62.69
2022-08-18T11:45:25.520Z,63.61
2022-08-18T11:46:30.134Z,63.08
2022-08-18T11:47:27.702Z,64.47
2022-08-18T11:48:32.158Z,64.68
2022-08-18T11:49:27.480Z,64.04
2022-08-18T11:50:25.475Z,62.98
2022-08-18T11:51:25.596Z,62.54
2022-08-18T11:52:29.074Z,65.63
2022-08-18T11:53:27.338Z,67.33
2022-08-18T11:54:25.441Z,65.51
2022-08-18T11:55:25.435Z,65.11
2022-08-18T11:56:27.102Z,63.94
2022-08-18T11:57:26.437Z,63.74
2022-08-18T11:58:25.415Z,66.01
2022-08-18T11:59:52.655Z,66.72
2022-08-18T12:00:26.407Z,67.09
2022-08-18T12:01:25.393Z,66.67
2022-08-18T12:02:25.440Z,67.43
2022-08-18T12:03:28.454Z,64.99
2022-08-18T12:04:26.277Z,63.09
2022-08-18T12:05:25.357Z,64.11
2022-08-18T12:06:27.094Z,64.80
2022-08-18T12:07:25.357Z,63.08
2022-08-18T12:08:54.654Z,65.50
2022-08-18T12:10:28.463Z,67.60
2022-08-18T12:11:27.194Z,64.52
2022-08-18T12:12:25.468Z,64.27
2022-08-18T12:13:25.310Z,65.32
2022-08-18T12:15:36.556Z,63.53
2022-08-18T12:16:27.276Z,64.08
2022-08-18T12:17:25.282Z,64.77
2022-08-18T12:18:28.728Z,65.17
2022-08-18T12:19:25.331Z,62.58
2022-08-18T12:20:25.242Z,64.52
2022-08-18T12:21:25.256Z,65.61
2022-08-18T12:22:26.223Z,66.35
2022-08-18T12:23:25.230Z,61.66
2022-08-18T12:24:26.081Z,62.67
2022-08-18T12:25:25.810Z,64.41
2022-08-18T12:26:38.820Z,67.83
2022-08-18T12:27:26.188Z,66.18
2022-08-18T12:28:28.197Z,66.61
2022-08-18T12:29:29.474Z,66.77
2022-08-18T12:30:27.165Z,69.01
2022-08-18T12:32:41.345Z,66.30
2022-08-18T12:33:34.562Z,63.99
2022-08-18T12:34:26.609Z,64.19
2022-08-18T12:35:25.181Z,64.86
2022-08-18T12:36:25.117Z,63.46
2022-08-18T12:37:58.129Z,64.66
2022-08-18T12:38:27.103Z,65.89
2022-08-18T12:39:25.109Z,65.39
2022-08-18T12:40:25.135Z,64.42
2022-08-18T12:41:25.072Z,62.66
2022-08-18T12:44:13.418Z,62.56
2022-08-18T12:45:11.691Z,63.92
2022-08-18T12:47:12.626Z,62.32
2022-08-18T12:48:11.630Z,64.48
2022-08-18T12:49:11.615Z,64.20
2022-08-18T12:50:11.610Z,63.33
2022-08-18T12:51:14.240Z,64.56
2022-08-18T12:52:12.689Z,66.40
2022-08-18T12:53:14.337Z,64.43
2022-08-18T12:54:13.742Z,65.09
2022-08-18T12:55:22.031Z,64.44
2022-08-18T12:56:13.651Z,65.35
2022-08-18T12:57:16.877Z,63.74
2022-08-18T12:58:13.412Z,65.69
2022-08-18T12:59:12.640Z,63.58
2022-08-18T13:00:15.331Z,65.02
2022-08-18T13:01:13.663Z,64.64
2022-08-18T13:02:13.423Z,64.54
2022-08-18T13:03:13.490Z,64.13
2022-08-18T13:04:14.243Z,62.72
2022-08-18T13:05:13.593Z,66.13
2022-08-18T13:06:12.588Z,63.98